Scratch — MKXQ6 — position and weather

sailwx.info

Track history (hours):
 
Tides and Currents Weather Stations Pressure Air Temp Water Temp Dewpoint Dewpoint Depression Visibility Wind Speed Wind Dir Waves Ship Positions

Scratch

Last reported at 2016-Jun-22 00:23 UTC. Time now 2016-Jun-24 23:56 UTC.
Position N 43°31' E 006°57'.

Length 27 m; draft 2 m.

MMSI: 235031887.

Date/timePositionNaut miles runAvg speedWind from/ knotsBaromVisibWave heightAir tempDewpointWater temp
2016-Jun-22 00:23N 43°31' E 006°57'0 0.0
2016-Jun-21 21:19N 43°31' E 006°57'0 0.0
2016-Jun-21 20:32N 43°31' E 006°57'0 0.0
2016-Jun-21 18:33N 43°31' E 006°57'0 0.0
2016-Jun-21 17:28N 43°31' E 006°57'0 0.0
2016-Jun-20 14:22N 43°31' E 006°57'0 0.0
2016-Jun-20 05:22N 43°31' E 006°57'0 0.0
2016-Jun-20 02:33N 43°31' E 006°57'0 0.0
2016-Jun-19 23:32N 43°31' E 006°57'0 0.0
2016-Jun-19 17:33N 43°31' E 006°57'0 0.0
2016-Jun-19 14:32N 43°31' E 006°57'0 0.0
2016-Jun-19 13:27N 43°31' E 006°57'0 0.0
2016-Jun-19 11:28N 43°31' E 006°57'0 0.0
2016-Jun-19 02:28N 43°31' E 006°57'0 0.0
2016-Jun-18 23:18N 43°31' E 006°57'0 0.0
2016-Jun-18 17:25N 43°31' E 006°57'8 8.7
2016-Jun-18 16:33N 43°34' E 007°07'3 3.1
2016-Jun-18 15:32N 43°31' E 007°04'0 0.0
2016-Jun-18 13:16N 43°31' E 007°04'1 0.2
2016-Jun-18 08:04N 43°30' E 007°04'4 8.0
2016-Jun-18 07:33N 43°34' E 007°07'1 1.3
2016-Jun-18 06:33N 43°33' E 007°06'7 0.3
2016-Jun-17 10:32N 43°31' E 006°57'0 0.0
2016-Jun-17 09:30N 43°31' E 006°57'0 0.0
2016-Jun-17 07:31N 43°31' E 006°57'0 0.0
2016-Jun-16 19:33N 43°31' E 006°57'0 0.0
2016-Jun-16 18:31N 43°31' E 006°57'0 0.0
2016-Jun-16 04:11N 43°31' E 006°57'0 0.0
2016-Jun-16 03:29N 43°31' E 006°57'0 0.0
2016-Jun-16 01:25N 43°31' E 006°57'0 0.0
2016-Jun-16 00:31N 43°31' E 006°57'0 0.0
2016-Jun-15 22:21N 43°31' E 006°57'0 0.0
2016-Jun-15 21:21N 43°31' E 006°57'0 0.0
2016-Jun-15 19:17N 43°31' E 006°57'0 0.0
2016-Jun-15 18:29N 43°31' E 006°57'0 0.0
2016-Jun-15 16:16N 43°31' E 006°57'0 0.0
2016-Jun-15 15:28N 43°31' E 006°57'0 0.0
2016-Jun-15 13:12N 43°31' E 006°57'0 0.0
2016-Jun-15 10:14N 43°31' E 006°57'0 0.0
2016-Jun-15 07:10N 43°31' E 006°57'0 0.0
2016-Jun-15 06:13N 43°31' E 006°57'0 0.0
2016-Jun-15 00:23N 43°31' E 006°57'0 0.0
2016-Jun-14 15:32N 43°31' E 006°57'0 0.0
2016-Jun-14 05:33N 43°31' E 006°57'0 0.0
2016-Jun-14 03:05N 43°31' E 006°57'0 0.0
2016-Jun-14 00:31N 43°31' E 006°57'0 0.0
2016-Jun-13 20:33N 43°31' E 006°57'0 0.0
2016-Jun-13 06:31N 43°31' E 006°57'0 0.0
2016-Jun-13 03:33N 43°31' E 006°57'0 0.0
2016-Jun-13 00:29N 43°31' E 006°57'0 0.0
2016-Jun-12 23:29N 43°31' E 006°57'0 0.0
2016-Jun-12 21:31N 43°31' E 006°57'0 0.0
2016-Jun-12 06:14N 43°31' E 006°57'  
Track history (hours):
 
Tides and Currents Weather Stations Pressure Air Temp Water Temp Dewpoint Dewpoint Depression Visibility Wind Speed Wind Dir Waves Ship Positions

Scratch

Last reported at 2016-Jun-22 00:23 UTC. Time now 2016-Jun-24 23:56 UTC.
Position N 43°31' E 006°57'.

Length 27 m; draft 2 m.

MMSI: 235031887.

Date/timePositionNaut miles runAvg speedWind from/ knotsBaromVisibWave heightAir tempDewpointWater temp
2016-Jun-22 00:23N 43°31' E 006°57'0 0.0
2016-Jun-21 21:19N 43°31' E 006°57'0 0.0
2016-Jun-21 20:32N 43°31' E 006°57'0 0.0
2016-Jun-21 18:33N 43°31' E 006°57'0 0.0
2016-Jun-21 17:28N 43°31' E 006°57'0 0.0
2016-Jun-20 14:22N 43°31' E 006°57'0 0.0
2016-Jun-20 05:22N 43°31' E 006°57'0 0.0
2016-Jun-20 02:33N 43°31' E 006°57'0 0.0
2016-Jun-19 23:32N 43°31' E 006°57'0 0.0
2016-Jun-19 17:33N 43°31' E 006°57'0 0.0
2016-Jun-19 14:32N 43°31' E 006°57'0 0.0
2016-Jun-19 13:27N 43°31' E 006°57'0 0.0
2016-Jun-19 11:28N 43°31' E 006°57'0 0.0
2016-Jun-19 02:28N 43°31' E 006°57'0 0.0
2016-Jun-18 23:18N 43°31' E 006°57'0 0.0
2016-Jun-18 17:25N 43°31' E 006°57'8 8.7
2016-Jun-18 16:33N 43°34' E 007°07'3 3.1
2016-Jun-18 15:32N 43°31' E 007°04'0 0.0
2016-Jun-18 13:16N 43°31' E 007°04'1 0.2
2016-Jun-18 08:04N 43°30' E 007°04'4 8.0
2016-Jun-18 07:33N 43°34' E 007°07'1 1.3
2016-Jun-18 06:33N 43°33' E 007°06'7 0.3
2016-Jun-17 10:32N 43°31' E 006°57'0 0.0
2016-Jun-17 09:30N 43°31' E 006°57'0 0.0
2016-Jun-17 07:31N 43°31' E 006°57'0 0.0
2016-Jun-16 19:33N 43°31' E 006°57'0 0.0
2016-Jun-16 18:31N 43°31' E 006°57'0 0.0
2016-Jun-16 04:11N 43°31' E 006°57'0 0.0
2016-Jun-16 03:29N 43°31' E 006°57'0 0.0
2016-Jun-16 01:25N 43°31' E 006°57'0 0.0
2016-Jun-16 00:31N 43°31' E 006°57'0 0.0
2016-Jun-15 22:21N 43°31' E 006°57'0 0.0
2016-Jun-15 21:21N 43°31' E 006°57'0 0.0
2016-Jun-15 19:17N 43°31' E 006°57'0 0.0
2016-Jun-15 18:29N 43°31' E 006°57'0 0.0
2016-Jun-15 16:16N 43°31' E 006°57'0 0.0
2016-Jun-15 15:28N 43°31' E 006°57'0 0.0
2016-Jun-15 13:12N 43°31' E 006°57'0 0.0
2016-Jun-15 10:14N 43°31' E 006°57'0 0.0
2016-Jun-15 07:10N 43°31' E 006°57'0 0.0
2016-Jun-15 06:13N 43°31' E 006°57'0 0.0
2016-Jun-15 00:23N 43°31' E 006°57'0 0.0
2016-Jun-14 15:32N 43°31' E 006°57'0 0.0
2016-Jun-14 05:33N 43°31' E 006°57'0 0.0
2016-Jun-14 03:05N 43°31' E 006°57'0 0.0
2016-Jun-14 00:31N 43°31' E 006°57'0 0.0
2016-Jun-13 20:33N 43°31' E 006°57'0 0.0
2016-Jun-13 06:31N 43°31' E 006°57'0 0.0
2016-Jun-13 03:33N 43°31' E 006°57'0 0.0
2016-Jun-13 00:29N 43°31' E 006°57'0 0.0
2016-Jun-12 23:29N 43°31' E 006°57'0 0.0
2016-Jun-12 21:31N 43°31' E 006°57'0 0.0
2016-Jun-12 06:14N 43°31' E 006°57'  

Dump ship's entire track history